sensor_id;sensor_type;location;lat;lon;timestamp;P1;durP1;ratioP1;P2;durP2;ratioP2
13872;SDS011;7006;51.494;11.964;2023-05-19T00:02:17;7.47;;;5.60;;
13872;SDS011;7006;51.494;11.964;2023-05-19T00:04:45;9.00;;;5.30;;
13872;SDS011;7006;51.494;11.964;2023-05-19T00:07:14;8.10;;;5.53;;
13872;SDS011;7006;51.494;11.964;2023-05-19T00:09:44;7.87;;;5.43;;
13872;SDS011;7006;51.494;11.964;2023-05-19T00:12:15;8.30;;;5.80;;
13872;SDS011;7006;51.494;11.964;2023-05-19T00:14:44;7.40;;;5.70;;
13872;SDS011;7006;51.494;11.964;2023-05-19T00:17:12;8.57;;;5.13;;
13872;SDS011;7006;51.494;11.964;2023-05-19T00:19:40;12.03;;;6.43;;
13872;SDS011;7006;51.494;11.964;2023-05-19T00:22:09;10.30;;;5.33;;
13872;SDS011;7006;51.494;11.964;2023-05-19T00:24:37;6.87;;;5.40;;
13872;SDS011;7006;51.494;11.964;2023-05-19T00:27:05;7.90;;;5.40;;
13872;SDS011;7006;51.494;11.964;2023-05-19T00:29:36;9.87;;;6.20;;
13872;SDS011;7006;51.494;11.964;2023-05-19T00:32:04;13.30;;;5.50;;
13872;SDS011;7006;51.494;11.964;2023-05-19T00:34:32;7.30;;;5.17;;
13872;SDS011;7006;51.494;11.964;2023-05-19T00:37:00;8.17;;;5.10;;
13872;SDS011;7006;51.494;11.964;2023-05-19T00:39:28;5.67;;;4.37;;
13872;SDS011;7006;51.494;11.964;2023-05-19T00:41:56;7.80;;;4.90;;
13872;SDS011;7006;51.494;11.964;2023-05-19T00:44:25;5.60;;;4.43;;
13872;SDS011;7006;51.494;11.964;2023-05-19T00:46:56;7.37;;;4.50;;
13872;SDS011;7006;51.494;11.964;2023-05-19T00:49:37;6.47;;;4.60;;
13872;SDS011;7006;51.494;11.964;2023-05-19T00:52:07;6.10;;;4.33;;
13872;SDS011;7006;51.494;11.964;2023-05-19T00:54:37;6.80;;;4.80;;
13872;SDS011;7006;51.494;11.964;2023-05-19T00:57:06;7.63;;;4.60;;
13872;SDS011;7006;51.494;11.964;2023-05-19T00:59:35;9.27;;;4.93;;
13872;SDS011;7006;51.494;11.964;2023-05-19T01:02:08;8.67;;;5.40;;
13872;SDS011;7006;51.494;11.964;2023-05-19T01:04:37;7.93;;;4.80;;
13872;SDS011;7006;51.494;11.964;2023-05-19T01:07:09;8.63;;;4.67;;
13872;SDS011;7006;51.494;11.964;2023-05-19T01:09:38;10.37;;;5.67;;
13872;SDS011;7006;51.494;11.964;2023-05-19T01:12:14;8.53;;;5.13;;
13872;SDS011;7006;51.494;11.964;2023-05-19T01:15:05;9.37;;;5.57;;
13872;SDS011;7006;51.494;11.964;2023-05-19T01:17:50;9.13;;;5.53;;
13872;SDS011;7006;51.494;11.964;2023-05-19T01:20:33;11.80;;;5.63;;
13872;SDS011;7006;51.494;11.964;2023-05-19T01:23:23;9.33;;;5.50;;
13872;SDS011;7006;51.494;11.964;2023-05-19T01:26:24;6.00;;;5.03;;
13872;SDS011;7006;51.494;11.964;2023-05-19T01:32:02;9.57;;;5.43;;
13872;SDS011;7006;51.494;11.964;2023-05-19T01:34:34;6.60;;;4.57;;
13872;SDS011;7006;51.494;11.964;2023-05-19T01:37:09;8.13;;;5.60;;
13872;SDS011;7006;51.494;11.964;2023-05-19T01:39:44;10.10;;;5.53;;
13872;SDS011;7006;51.494;11.964;2023-05-19T01:42:14;8.27;;;5.87;;
13872;SDS011;7006;51.494;11.964;2023-05-19T01:44:48;7.20;;;5.63;;
13872;SDS011;7006;51.494;11.964;2023-05-19T01:47:23;7.20;;;5.63;;
13872;SDS011;7006;51.494;11.964;2023-05-19T01:49:51;6.70;;;5.37;;
13872;SDS011;7006;51.494;11.964;2023-05-19T01:52:28;6.80;;;5.47;;
13872;SDS011;7006;51.494;11.964;2023-05-19T01:55:01;7.70;;;5.00;;
13872;SDS011;7006;51.494;11.964;2023-05-19T01:57:42;13.00;;;5.17;;
13872;SDS011;7006;51.494;11.964;2023-05-19T02:00:17;7.57;;;5.33;;
13872;SDS011;7006;51.494;11.964;2023-05-19T02:02:58;6.97;;;5.60;;
13872;SDS011;7006;51.494;11.964;2023-05-19T02:05:35;10.97;;;5.30;;
13872;SDS011;7006;51.494;11.964;2023-05-19T02:08:19;8.30;;;5.23;;
13872;SDS011;7006;51.494;11.964;2023-05-19T02:10:53;7.40;;;5.47;;
13872;SDS011;7006;51.494;11.964;2023-05-19T02:13:23;9.50;;;5.20;;
13872;SDS011;7006;51.494;11.964;2023-05-19T02:15:58;6.13;;;4.97;;
13872;SDS011;7006;51.494;11.964;2023-05-19T02:18:44;9.33;;;5.23;;
13872;SDS011;7006;51.494;11.964;2023-05-19T02:21:24;6.93;;;5.17;;
13872;SDS011;7006;51.494;11.964;2023-05-19T02:23:55;7.37;;;5.23;;
13872;SDS011;7006;51.494;11.964;2023-05-19T02:26:36;6.83;;;5.07;;
13872;SDS011;7006;51.494;11.964;2023-05-19T02:29:04;10.47;;;5.37;;
13872;SDS011;7006;51.494;11.964;2023-05-19T02:31:33;6.07;;;5.27;;
13872;SDS011;7006;51.494;11.964;2023-05-19T02:34:04;5.60;;;4.90;;
13872;SDS011;7006;51.494;11.964;2023-05-19T02:36:33;7.37;;;5.23;;
13872;SDS011;7006;51.494;11.964;2023-05-19T02:39:02;7.77;;;5.30;;
13872;SDS011;7006;51.494;11.964;2023-05-19T02:41:31;6.07;;;5.07;;
13872;SDS011;7006;51.494;11.964;2023-05-19T02:44:03;7.60;;;5.30;;
13872;SDS011;7006;51.494;11.964;2023-05-19T02:46:34;8.57;;;5.60;;
13872;SDS011;7006;51.494;11.964;2023-05-19T02:49:12;8.57;;;5.30;;
13872;SDS011;7006;51.494;11.964;2023-05-19T02:51:41;7.30;;;5.63;;
13872;SDS011;7006;51.494;11.964;2023-05-19T02:54:12;7.20;;;5.47;;
13872;SDS011;7006;51.494;11.964;2023-05-19T02:56:47;6.47;;;4.70;;
13872;SDS011;7006;51.494;11.964;2023-05-19T02:59:15;7.33;;;5.33;;
13872;SDS011;7006;51.494;11.964;2023-05-19T03:01:48;8.60;;;5.33;;
13872;SDS011;7006;51.494;11.964;2023-05-19T03:04:20;10.90;;;5.60;;
13872;SDS011;7006;51.494;11.964;2023-05-19T03:06:49;8.23;;;5.23;;
13872;SDS011;7006;51.494;11.964;2023-05-19T03:09:18;6.17;;;5.17;;
13872;SDS011;7006;51.494;11.964;2023-05-19T03:11:48;6.30;;;5.07;;
13872;SDS011;7006;51.494;11.964;2023-05-19T03:14:19;8.10;;;5.13;;
13872;SDS011;7006;51.494;11.964;2023-05-19T03:17:01;8.13;;;5.43;;
13872;SDS011;7006;51.494;11.964;2023-05-19T03:19:40;6.27;;;4.50;;
13872;SDS011;7006;51.494;11.964;2023-05-19T03:28:08;7.70;;;5.27;;
13872;SDS011;7006;51.494;11.964;2023-05-19T03:31:01;8.87;;;5.20;;
13872;SDS011;7006;51.494;11.964;2023-05-19T03:36:47;7.20;;;4.80;;
13872;SDS011;7006;51.494;11.964;2023-05-19T03:42:17;8.63;;;4.40;;
13872;SDS011;7006;51.494;11.964;2023-05-19T03:44:56;6.97;;;4.70;;
13872;SDS011;7006;51.494;11.964;2023-05-19T03:47:54;9.03;;;5.33;;
13872;SDS011;7006;51.494;11.964;2023-05-19T03:50:22;6.40;;;4.10;;
13872;SDS011;7006;51.494;11.964;2023-05-19T03:53:11;7.33;;;4.53;;
13872;SDS011;7006;51.494;11.964;2023-05-19T03:55:52;8.47;;;4.77;;
13872;SDS011;7006;51.494;11.964;2023-05-19T04:02:12;9.53;;;4.37;;
13872;SDS011;7006;51.494;11.964;2023-05-19T04:14:09;6.23;;;4.60;;
13872;SDS011;7006;51.494;11.964;2023-05-19T04:16:38;6.50;;;4.77;;
13872;SDS011;7006;51.494;11.964;2023-05-19T04:19:16;9.03;;;4.50;;
13872;SDS011;7006;51.494;11.964;2023-05-19T04:27:44;7.47;;;4.50;;
13872;SDS011;7006;51.494;11.964;2023-05-19T04:30:15;6.13;;;4.43;;
13872;SDS011;7006;51.494;11.964;2023-05-19T04:32:46;8.43;;;5.47;;
13872;SDS011;7006;51.494;11.964;2023-05-19T04:35:15;5.73;;;4.67;;
13872;SDS011;7006;51.494;11.964;2023-05-19T04:37:43;7.50;;;4.40;;
13872;SDS011;7006;51.494;11.964;2023-05-19T04:40:12;9.13;;;4.70;;
13872;SDS011;7006;51.494;11.964;2023-05-19T04:42:41;5.27;;;4.30;;
13872;SDS011;7006;51.494;11.964;2023-05-19T04:45:10;6.73;;;4.50;;
13872;SDS011;7006;51.494;11.964;2023-05-19T04:47:41;8.57;;;5.20;;
13872;SDS011;7006;51.494;11.964;2023-05-19T04:50:10;6.03;;;4.30;;
13872;SDS011;7006;51.494;11.964;2023-05-19T04:52:39;8.50;;;5.03;;
13872;SDS011;7006;51.494;11.964;2023-05-19T04:55:09;10.37;;;4.30;;
13872;SDS011;7006;51.494;11.964;2023-05-19T04:57:37;7.87;;;4.70;;
13872;SDS011;7006;51.494;11.964;2023-05-19T05:00:06;7.37;;;4.90;;
13872;SDS011;7006;51.494;11.964;2023-05-19T05:02:37;10.63;;;4.57;;
13872;SDS011;7006;51.494;11.964;2023-05-19T05:05:09;5.70;;;4.80;;
13872;SDS011;7006;51.494;11.964;2023-05-19T05:07:37;10.93;;;4.70;;
13872;SDS011;7006;51.494;11.964;2023-05-19T05:10:06;7.13;;;4.33;;
13872;SDS011;7006;51.494;11.964;2023-05-19T05:12:35;5.30;;;4.40;;
13872;SDS011;7006;51.494;11.964;2023-05-19T05:15:04;6.00;;;4.40;;
13872;SDS011;7006;51.494;11.964;2023-05-19T05:17:33;10.23;;;5.17;;
13872;SDS011;7006;51.494;11.964;2023-05-19T05:20:02;7.20;;;4.30;;
13872;SDS011;7006;51.494;11.964;2023-05-19T05:22:34;7.30;;;4.33;;
13872;SDS011;7006;51.494;11.964;2023-05-19T05:25:03;8.10;;;4.50;;
13872;SDS011;7006;51.494;11.964;2023-05-19T05:27:31;9.57;;;4.50;;
13872;SDS011;7006;51.494;11.964;2023-05-19T05:29:59;8.90;;;4.37;;
13872;SDS011;7006;51.494;11.964;2023-05-19T05:32:28;6.57;;;4.30;;
13872;SDS011;7006;51.494;11.964;2023-05-19T05:34:56;5.23;;;3.80;;
13872;SDS011;7006;51.494;11.964;2023-05-19T05:37:24;7.73;;;4.60;;
13872;SDS011;7006;51.494;11.964;2023-05-19T05:39:55;6.13;;;4.00;;
13872;SDS011;7006;51.494;11.964;2023-05-19T05:42:23;6.20;;;4.30;;
13872;SDS011;7006;51.494;11.964;2023-05-19T05:44:51;8.87;;;4.23;;
13872;SDS011;7006;51.494;11.964;2023-05-19T05:47:20;8.53;;;4.50;;
13872;SDS011;7006;51.494;11.964;2023-05-19T05:49:48;9.17;;;4.50;;
13872;SDS011;7006;51.494;11.964;2023-05-19T05:52:16;9.87;;;4.60;;
13872;SDS011;7006;51.494;11.964;2023-05-19T05:54:45;6.93;;;3.90;;
13872;SDS011;7006;51.494;11.964;2023-05-19T05:57:16;5.80;;;3.97;;
13872;SDS011;7006;51.494;11.964;2023-05-19T05:59:44;6.43;;;4.60;;
13872;SDS011;7006;51.494;11.964;2023-05-19T06:02:15;7.53;;;4.33;;
13872;SDS011;7006;51.494;11.964;2023-05-19T06:04:43;8.07;;;4.27;;
13872;SDS011;7006;51.494;11.964;2023-05-19T06:07:11;6.77;;;4.83;;
13872;SDS011;7006;51.494;11.964;2023-05-19T06:09:39;6.83;;;4.60;;
13872;SDS011;7006;51.494;11.964;2023-05-19T06:12:08;6.93;;;4.47;;
13872;SDS011;7006;51.494;11.964;2023-05-19T06:14:38;5.80;;;4.20;;
13872;SDS011;7006;51.494;11.964;2023-05-19T06:17:07;5.63;;;4.20;;
13872;SDS011;7006;51.494;11.964;2023-05-19T06:19:35;6.03;;;4.20;;
13872;SDS011;7006;51.494;11.964;2023-05-19T06:22:03;6.40;;;4.33;;
13872;SDS011;7006;51.494;11.964;2023-05-19T06:24:31;8.73;;;4.50;;
13872;SDS011;7006;51.494;11.964;2023-05-19T06:27:00;7.30;;;3.93;;
13872;SDS011;7006;51.494;11.964;2023-05-19T06:29:28;7.07;;;4.60;;
13872;SDS011;7006;51.494;11.964;2023-05-19T06:31:59;11.50;;;5.20;;
13872;SDS011;7006;51.494;11.964;2023-05-19T06:34:27;6.53;;;4.20;;
13872;SDS011;7006;51.494;11.964;2023-05-19T06:36:55;6.23;;;4.40;;
13872;SDS011;7006;51.494;11.964;2023-05-19T06:39:23;5.90;;;4.37;;
13872;SDS011;7006;51.494;11.964;2023-05-19T06:41:51;7.60;;;4.97;;
13872;SDS011;7006;51.494;11.964;2023-05-19T06:44:21;7.10;;;4.50;;
13872;SDS011;7006;51.494;11.964;2023-05-19T06:46:52;7.30;;;4.40;;
13872;SDS011;7006;51.494;11.964;2023-05-19T06:49:23;7.80;;;4.30;;
13872;SDS011;7006;51.494;11.964;2023-05-19T06:51:53;5.40;;;4.30;;
13872;SDS011;7006;51.494;11.964;2023-05-19T06:54:21;7.77;;;4.97;;
13872;SDS011;7006;51.494;11.964;2023-05-19T06:56:49;8.17;;;4.43;;
13872;SDS011;7006;51.494;11.964;2023-05-19T06:59:17;7.80;;;4.30;;
13872;SDS011;7006;51.494;11.964;2023-05-19T07:01:47;8.93;;;5.40;;
13872;SDS011;7006;51.494;11.964;2023-05-19T07:04:15;6.37;;;4.10;;
13872;SDS011;7006;51.494;11.964;2023-05-19T07:06:46;7.13;;;4.10;;
13872;SDS011;7006;51.494;11.964;2023-05-19T07:09:14;7.33;;;4.47;;
13872;SDS011;7006;51.494;11.964;2023-05-19T07:11:43;5.87;;;4.43;;
13872;SDS011;7006;51.494;11.964;2023-05-19T07:14:11;7.87;;;4.00;;
13872;SDS011;7006;51.494;11.964;2023-05-19T07:16:39;6.50;;;3.90;;
13872;SDS011;7006;51.494;11.964;2023-05-19T07:19:07;5.93;;;4.20;;
13872;SDS011;7006;51.494;11.964;2023-05-19T07:21:36;4.67;;;3.80;;
13872;SDS011;7006;51.494;11.964;2023-05-19T07:24:06;6.93;;;3.87;;
13872;SDS011;7006;51.494;11.964;2023-05-19T07:26:35;6.73;;;4.67;;
13872;SDS011;7006;51.494;11.964;2023-05-19T07:29:03;5.10;;;3.90;;
13872;SDS011;7006;51.494;11.964;2023-05-19T07:31:31;6.10;;;3.90;;
13872;SDS011;7006;51.494;11.964;2023-05-19T07:33:59;5.23;;;3.80;;
13872;SDS011;7006;51.494;11.964;2023-05-19T07:36:27;6.07;;;3.87;;
13872;SDS011;7006;51.494;11.964;2023-05-19T07:38:56;5.63;;;3.97;;
13872;SDS011;7006;51.494;11.964;2023-05-19T07:41:26;8.13;;;4.13;;
13872;SDS011;7006;51.494;11.964;2023-05-19T07:43:55;5.60;;;4.20;;
13872;SDS011;7006;51.494;11.964;2023-05-19T07:46:25;6.57;;;4.43;;
13872;SDS011;7006;51.494;11.964;2023-05-19T07:48:53;6.00;;;3.97;;
13872;SDS011;7006;51.494;11.964;2023-05-19T07:51:21;7.20;;;4.10;;
13872;SDS011;7006;51.494;11.964;2023-05-19T07:53:49;7.63;;;4.43;;
13872;SDS011;7006;51.494;11.964;2023-05-19T07:56:18;5.20;;;3.53;;
13872;SDS011;7006;51.494;11.964;2023-05-19T07:58:49;5.23;;;3.30;;
13872;SDS011;7006;51.494;11.964;2023-05-19T08:01:18;4.07;;;3.10;;
13872;SDS011;7006;51.494;11.964;2023-05-19T08:03:46;5.97;;;2.93;;
13872;SDS011;7006;51.494;11.964;2023-05-19T08:06:14;5.83;;;3.30;;
13872;SDS011;7006;51.494;11.964;2023-05-19T08:08:43;5.77;;;3.67;;
13872;SDS011;7006;51.494;11.964;2023-05-19T08:11:11;7.10;;;4.03;;
13872;SDS011;7006;51.494;11.964;2023-05-19T08:13:39;5.43;;;3.10;;
13872;SDS011;7006;51.494;11.964;2023-05-19T08:16:10;7.77;;;4.33;;
13872;SDS011;7006;51.494;11.964;2023-05-19T08:18:38;5.70;;;3.70;;
13872;SDS011;7006;51.494;11.964;2023-05-19T08:21:07;5.70;;;3.63;;
13872;SDS011;7006;51.494;11.964;2023-05-19T08:23:35;5.77;;;3.63;;
13872;SDS011;7006;51.494;11.964;2023-05-19T08:26:04;7.90;;;3.57;;
13872;SDS011;7006;51.494;11.964;2023-05-19T08:28:32;9.40;;;5.53;;
13872;SDS011;7006;51.494;11.964;2023-05-19T08:31:00;6.90;;;3.43;;
13872;SDS011;7006;51.494;11.964;2023-05-19T08:33:31;5.37;;;3.67;;
13872;SDS011;7006;51.494;11.964;2023-05-19T08:35:59;4.43;;;2.90;;
13872;SDS011;7006;51.494;11.964;2023-05-19T08:38:28;4.53;;;2.97;;
13872;SDS011;7006;51.494;11.964;2023-05-19T08:40:56;5.83;;;2.27;;
13872;SDS011;7006;51.494;11.964;2023-05-19T08:43:25;4.97;;;2.87;;
13872;SDS011;7006;51.494;11.964;2023-05-19T08:45:53;4.80;;;2.50;;
13872;SDS011;7006;51.494;11.964;2023-05-19T08:48:21;4.80;;;2.40;;
13872;SDS011;7006;51.494;11.964;2023-05-19T08:50:54;5.17;;;2.40;;
13872;SDS011;7006;51.494;11.964;2023-05-19T08:53:25;3.73;;;2.00;;
13872;SDS011;7006;51.494;11.964;2023-05-19T08:55:57;3.57;;;2.30;;
13872;SDS011;7006;51.494;11.964;2023-05-19T08:58:28;4.03;;;2.53;;
13872;SDS011;7006;51.494;11.964;2023-05-19T09:00:57;5.00;;;2.40;;
13872;SDS011;7006;51.494;11.964;2023-05-19T09:03:27;5.23;;;2.50;;
13872;SDS011;7006;51.494;11.964;2023-05-19T09:05:59;3.07;;;2.27;;
13872;SDS011;7006;51.494;11.964;2023-05-19T09:08:27;4.60;;;2.57;;
13872;SDS011;7006;51.494;11.964;2023-05-19T09:10:56;7.43;;;2.90;;
13872;SDS011;7006;51.494;11.964;2023-05-19T09:13:24;4.20;;;2.30;;
13872;SDS011;7006;51.494;11.964;2023-05-19T09:15:53;5.27;;;2.43;;
13872;SDS011;7006;51.494;11.964;2023-05-19T09:18:23;6.03;;;2.60;;
13872;SDS011;7006;51.494;11.964;2023-05-19T09:20:54;6.00;;;2.40;;
13872;SDS011;7006;51.494;11.964;2023-05-19T09:23:28;3.77;;;2.40;;
13872;SDS011;7006;51.494;11.964;2023-05-19T09:26:00;4.90;;;2.30;;
13872;SDS011;7006;51.494;11.964;2023-05-19T09:28:29;5.13;;;2.67;;
13872;SDS011;7006;51.494;11.964;2023-05-19T09:31:00;3.73;;;2.17;;
13872;SDS011;7006;51.494;11.964;2023-05-19T09:33:28;4.23;;;1.87;;
13872;SDS011;7006;51.494;11.964;2023-05-19T09:35:57;3.80;;;1.80;;
13872;SDS011;7006;51.494;11.964;2023-05-19T09:38:28;4.83;;;2.27;;
13872;SDS011;7006;51.494;11.964;2023-05-19T09:40:56;4.30;;;2.13;;
13872;SDS011;7006;51.494;11.964;2023-05-19T09:43:26;4.83;;;2.50;;
13872;SDS011;7006;51.494;11.964;2023-05-19T09:45:54;8.73;;;2.17;;
13872;SDS011;7006;51.494;11.964;2023-05-19T09:48:24;4.83;;;2.57;;
13872;SDS011;7006;51.494;11.964;2023-05-19T09:50:52;3.43;;;2.20;;
13872;SDS011;7006;51.494;11.964;2023-05-19T09:53:21;5.73;;;2.03;;
13872;SDS011;7006;51.494;11.964;2023-05-19T09:55:53;4.20;;;2.70;;
13872;SDS011;7006;51.494;11.964;2023-05-19T09:58:22;6.80;;;2.70;;
13872;SDS011;7006;51.494;11.964;2023-05-19T10:00:51;4.00;;;2.10;;
13872;SDS011;7006;51.494;11.964;2023-05-19T10:03:21;3.10;;;2.23;;
13872;SDS011;7006;51.494;11.964;2023-05-19T10:05:49;3.83;;;2.30;;
13872;SDS011;7006;51.494;11.964;2023-05-19T10:08:18;4.73;;;2.60;;
13872;SDS011;7006;51.494;11.964;2023-05-19T10:10:46;4.47;;;2.87;;
13872;SDS011;7006;51.494;11.964;2023-05-19T10:13:17;7.20;;;2.40;;
13872;SDS011;7006;51.494;11.964;2023-05-19T10:15:46;4.77;;;2.60;;
13872;SDS011;7006;51.494;11.964;2023-05-19T10:18:16;5.87;;;2.60;;
13872;SDS011;7006;51.494;11.964;2023-05-19T10:20:44;4.10;;;2.40;;
13872;SDS011;7006;51.494;11.964;2023-05-19T10:23:13;5.70;;;2.17;;
13872;SDS011;7006;51.494;11.964;2023-05-19T10:25:41;3.57;;;2.33;;
13872;SDS011;7006;51.494;11.964;2023-05-19T10:28:10;2.50;;;1.97;;
13872;SDS011;7006;51.494;11.964;2023-05-19T10:30:43;6.30;;;2.70;;
13872;SDS011;7006;51.494;11.964;2023-05-19T10:33:13;3.30;;;2.10;;
13872;SDS011;7006;51.494;11.964;2023-05-19T10:35:48;3.50;;;1.97;;
13872;SDS011;7006;51.494;11.964;2023-05-19T10:38:23;2.60;;;1.93;;
13872;SDS011;7006;51.494;11.964;2023-05-19T10:40:58;3.87;;;1.90;;
13872;SDS011;7006;51.494;11.964;2023-05-19T10:43:32;4.20;;;2.23;;
13872;SDS011;7006;51.494;11.964;2023-05-19T10:46:06;4.93;;;2.00;;
13872;SDS011;7006;51.494;11.964;2023-05-19T10:48:34;3.40;;;1.90;;
13872;SDS011;7006;51.494;11.964;2023-05-19T10:51:03;6.43;;;2.33;;
13872;SDS011;7006;51.494;11.964;2023-05-19T10:53:37;3.70;;;2.33;;
13872;SDS011;7006;51.494;11.964;2023-05-19T10:56:10;4.73;;;2.40;;
13872;SDS011;7006;51.494;11.964;2023-05-19T10:58:48;4.27;;;3.07;;
13872;SDS011;7006;51.494;11.964;2023-05-19T11:01:19;4.37;;;2.40;;
13872;SDS011;7006;51.494;11.964;2023-05-19T11:03:49;4.23;;;2.17;;
13872;SDS011;7006;51.494;11.964;2023-05-19T11:06:19;4.23;;;2.20;;
13872;SDS011;7006;51.494;11.964;2023-05-19T11:08:51;3.10;;;1.80;;
13872;SDS011;7006;51.494;11.964;2023-05-19T11:11:19;3.63;;;1.90;;
13872;SDS011;7006;51.494;11.964;2023-05-19T11:13:49;4.03;;;2.10;;
13872;SDS011;7006;51.494;11.964;2023-05-19T11:16:21;5.20;;;2.70;;
13872;SDS011;7006;51.494;11.964;2023-05-19T11:18:53;5.80;;;1.80;;
13872;SDS011;7006;51.494;11.964;2023-05-19T11:21:22;2.90;;;1.70;;
13872;SDS011;7006;51.494;11.964;2023-05-19T11:23:50;4.93;;;2.13;;
13872;SDS011;7006;51.494;11.964;2023-05-19T11:26:38;3.23;;;1.90;;
13872;SDS011;7006;51.494;11.964;2023-05-19T11:29:06;5.83;;;2.57;;
13872;SDS011;7006;51.494;11.964;2023-05-19T11:31:38;5.20;;;2.00;;
13872;SDS011;7006;51.494;11.964;2023-05-19T11:34:06;3.43;;;1.97;;
13872;SDS011;7006;51.494;11.964;2023-05-19T11:36:35;3.43;;;1.77;;
13872;SDS011;7006;51.494;11.964;2023-05-19T11:39:04;2.83;;;1.87;;
13872;SDS011;7006;51.494;11.964;2023-05-19T11:41:37;3.50;;;2.33;;
13872;SDS011;7006;51.494;11.964;2023-05-19T11:44:08;4.77;;;2.17;;
13872;SDS011;7006;51.494;11.964;2023-05-19T11:46:39;2.70;;;1.80;;
13872;SDS011;7006;51.494;11.964;2023-05-19T11:49:07;3.00;;;1.90;;
13872;SDS011;7006;51.494;11.964;2023-05-19T11:51:36;5.43;;;2.10;;
13872;SDS011;7006;51.494;11.964;2023-05-19T11:54:04;3.10;;;2.07;;
13872;SDS011;7006;51.494;11.964;2023-05-19T11:56:32;4.23;;;2.47;;
13872;SDS011;7006;51.494;11.964;2023-05-19T11:59:00;3.15;;;2.10;;
13872;SDS011;7006;51.494;11.964;2023-05-19T12:01:29;3.00;;;2.00;;
13872;SDS011;7006;51.494;11.964;2023-05-19T12:04:00;2.47;;;1.77;;
13872;SDS011;7006;51.494;11.964;2023-05-19T12:06:28;3.43;;;1.97;;
13872;SDS011;7006;51.494;11.964;2023-05-19T12:08:56;4.07;;;2.20;;
13872;SDS011;7006;51.494;11.964;2023-05-19T12:11:26;3.43;;;1.97;;
13872;SDS011;7006;51.494;11.964;2023-05-19T12:13:57;4.67;;;2.00;;
13872;SDS011;7006;51.494;11.964;2023-05-19T12:16:31;11.87;;;2.90;;
13872;SDS011;7006;51.494;11.964;2023-05-19T12:19:03;9.60;;;2.73;;
13872;SDS011;7006;51.494;11.964;2023-05-19T12:21:32;2.93;;;2.17;;
13872;SDS011;7006;51.494;11.964;2023-05-19T12:24:00;3.70;;;2.30;;
13872;SDS011;7006;51.494;11.964;2023-05-19T12:26:28;3.37;;;2.70;;
13872;SDS011;7006;51.494;11.964;2023-05-19T12:28:57;3.77;;;2.70;;
13872;SDS011;7006;51.494;11.964;2023-05-19T12:31:25;5.07;;;2.87;;
13872;SDS011;7006;51.494;11.964;2023-05-19T12:33:54;3.87;;;2.30;;
13872;SDS011;7006;51.494;11.964;2023-05-19T12:36:25;3.00;;;2.43;;
13872;SDS011;7006;51.494;11.964;2023-05-19T12:38:53;4.20;;;3.03;;
13872;SDS011;7006;51.494;11.964;2023-05-19T12:41:22;3.17;;;2.47;;
13872;SDS011;7006;51.494;11.964;2023-05-19T12:43:51;3.53;;;2.60;;
13872;SDS011;7006;51.494;11.964;2023-05-19T12:46:19;3.70;;;3.23;;
13872;SDS011;7006;51.494;11.964;2023-05-19T12:48:47;4.07;;;2.47;;
13872;SDS011;7006;51.494;11.964;2023-05-19T12:51:16;3.57;;;2.70;;
13872;SDS011;7006;51.494;11.964;2023-05-19T12:53:47;4.37;;;2.93;;
13872;SDS011;7006;51.494;11.964;2023-05-19T12:56:16;3.57;;;2.80;;
13872;SDS011;7006;51.494;11.964;2023-05-19T12:58:45;3.70;;;2.40;;
13872;SDS011;7006;51.494;11.964;2023-05-19T13:01:17;5.63;;;3.10;;
13872;SDS011;7006;51.494;11.964;2023-05-19T13:03:45;3.70;;;2.60;;
13872;SDS011;7006;51.494;11.964;2023-05-19T13:06:13;4.57;;;2.70;;
13872;SDS011;7006;51.494;11.964;2023-05-19T13:08:41;4.73;;;2.60;;
13872;SDS011;7006;51.494;11.964;2023-05-19T13:11:13;4.60;;;2.70;;
13872;SDS011;7006;51.494;11.964;2023-05-19T13:13:42;3.90;;;2.80;;
13872;SDS011;7006;51.494;11.964;2023-05-19T13:16:10;2.90;;;2.60;;
13872;SDS011;7006;51.494;11.964;2023-05-19T13:18:38;4.67;;;3.10;;
13872;SDS011;7006;51.494;11.964;2023-05-19T13:21:06;6.00;;;3.20;;
13872;SDS011;7006;51.494;11.964;2023-05-19T13:23:34;4.87;;;2.80;;
13872;SDS011;7006;51.494;11.964;2023-05-19T13:26:03;5.37;;;2.90;;
13872;SDS011;7006;51.494;11.964;2023-05-19T13:28:34;3.30;;;2.73;;
13872;SDS011;7006;51.494;11.964;2023-05-19T13:31:02;6.70;;;2.97;;
13872;SDS011;7006;51.494;11.964;2023-05-19T13:33:30;4.57;;;2.97;;
13872;SDS011;7006;51.494;11.964;2023-05-19T13:35:59;3.60;;;2.43;;
13872;SDS011;7006;51.494;11.964;2023-05-19T13:38:27;3.60;;;2.60;;
13872;SDS011;7006;51.494;11.964;2023-05-19T13:40:55;3.37;;;2.70;;
13872;SDS011;7006;51.494;11.964;2023-05-19T13:43:23;4.23;;;3.40;;
13872;SDS011;7006;51.494;11.964;2023-05-19T13:45:54;5.50;;;2.70;;
13872;SDS011;7006;51.494;11.964;2023-05-19T13:48:22;3.73;;;2.30;;
13872;SDS011;7006;51.494;11.964;2023-05-19T13:50:50;3.67;;;2.60;;
13872;SDS011;7006;51.494;11.964;2023-05-19T13:53:19;6.47;;;2.80;;
13872;SDS011;7006;51.494;11.964;2023-05-19T13:55:47;5.33;;;2.57;;
13872;SDS011;7006;51.494;11.964;2023-05-19T13:58:17;4.33;;;2.80;;
13872;SDS011;7006;51.494;11.964;2023-05-19T14:00:45;3.67;;;2.50;;
13872;SDS011;7006;51.494;11.964;2023-05-19T14:03:16;4.20;;;2.47;;
13872;SDS011;7006;51.494;11.964;2023-05-19T14:05:44;5.90;;;2.90;;
13872;SDS011;7006;51.494;11.964;2023-05-19T14:08:14;4.13;;;2.70;;
13872;SDS011;7006;51.494;11.964;2023-05-19T14:10:44;3.73;;;2.53;;
13872;SDS011;7006;51.494;11.964;2023-05-19T14:13:12;3.97;;;2.83;;
13872;SDS011;7006;51.494;11.964;2023-05-19T14:15:40;4.70;;;3.03;;
13872;SDS011;7006;51.494;11.964;2023-05-19T14:18:09;6.83;;;2.80;;
13872;SDS011;7006;51.494;11.964;2023-05-19T14:20:39;3.83;;;2.60;;
13872;SDS011;7006;51.494;11.964;2023-05-19T14:23:07;4.20;;;3.00;;
13872;SDS011;7006;51.494;11.964;2023-05-19T14:25:35;5.80;;;3.30;;
13872;SDS011;7006;51.494;11.964;2023-05-19T14:28:04;5.20;;;2.93;;
13872;SDS011;7006;51.494;11.964;2023-05-19T14:30:32;5.67;;;3.07;;
13872;SDS011;7006;51.494;11.964;2023-05-19T14:33:00;3.77;;;2.77;;
13872;SDS011;7006;51.494;11.964;2023-05-19T14:35:28;5.00;;;3.00;;
13872;SDS011;7006;51.494;11.964;2023-05-19T14:37:59;7.33;;;3.50;;
13872;SDS011;7006;51.494;11.964;2023-05-19T14:40:27;5.27;;;3.03;;
13872;SDS011;7006;51.494;11.964;2023-05-19T14:42:55;3.77;;;3.07;;
13872;SDS011;7006;51.494;11.964;2023-05-19T14:45:23;4.67;;;3.10;;
13872;SDS011;7006;51.494;11.964;2023-05-19T14:47:51;4.80;;;3.00;;
13872;SDS011;7006;51.494;11.964;2023-05-19T14:50:19;6.63;;;3.40;;
13872;SDS011;7006;51.494;11.964;2023-05-19T14:52:48;3.30;;;2.90;;
13872;SDS011;7006;51.494;11.964;2023-05-19T14:55:18;4.20;;;2.93;;
13872;SDS011;7006;51.494;11.964;2023-05-19T14:57:46;6.23;;;3.20;;
13872;SDS011;7006;51.494;11.964;2023-05-19T15:00:15;3.70;;;3.00;;
13872;SDS011;7006;51.494;11.964;2023-05-19T15:02:43;4.87;;;3.27;;
13872;SDS011;7006;51.494;11.964;2023-05-19T15:05:12;4.47;;;2.93;;
13872;SDS011;7006;51.494;11.964;2023-05-19T15:07:40;4.30;;;2.70;;
13872;SDS011;7006;51.494;11.964;2023-05-19T15:10:08;6.30;;;3.83;;
13872;SDS011;7006;51.494;11.964;2023-05-19T15:12:39;4.23;;;3.00;;
13872;SDS011;7006;51.494;11.964;2023-05-19T15:15:07;3.90;;;2.90;;
13872;SDS011;7006;51.494;11.964;2023-05-19T15:17:36;3.67;;;2.67;;
13872;SDS011;7006;51.494;11.964;2023-05-19T15:20:04;4.43;;;3.13;;
13872;SDS011;7006;51.494;11.964;2023-05-19T15:22:33;4.30;;;2.97;;
13872;SDS011;7006;51.494;11.964;2023-05-19T15:25:01;4.37;;;3.13;;
13872;SDS011;7006;51.494;11.964;2023-05-19T15:27:29;4.03;;;2.80;;
13872;SDS011;7006;51.494;11.964;2023-05-19T15:30:00;6.23;;;2.70;;
13872;SDS011;7006;51.494;11.964;2023-05-19T15:32:28;5.20;;;2.90;;
13872;SDS011;7006;51.494;11.964;2023-05-19T15:34:56;5.30;;;3.03;;
13872;SDS011;7006;51.494;11.964;2023-05-19T15:37:25;3.83;;;2.70;;
13872;SDS011;7006;51.494;11.964;2023-05-19T15:39:53;4.77;;;3.20;;
13872;SDS011;7006;51.494;11.964;2023-05-19T15:42:21;3.17;;;2.87;;